createdAt,value
2023-03-18T00:01:59.071Z,11.90
2023-03-18T00:04:27.619Z,16.50
2023-03-18T00:06:58.421Z,13.80
2023-03-18T00:09:27.724Z,12.90
2023-03-18T00:11:57.641Z,8.50
2023-03-18T00:14:26.345Z,10.50
2023-03-18T00:16:57.807Z,16.30
2023-03-18T00:19:26.544Z,12.60
2023-03-18T00:21:57.069Z,12.50
2023-03-18T00:24:27.290Z,9.20
2023-03-18T00:26:56.696Z,7.20
2023-03-18T00:29:25.372Z,8.00
2023-03-18T00:31:56.910Z,13.10
2023-03-18T00:34:25.877Z,10.50
2023-03-18T00:36:57.128Z,10.50
2023-03-18T00:39:28.417Z,8.10
2023-03-18T00:41:58.625Z,8.80
2023-03-18T00:44:27.195Z,9.50
2023-03-18T00:46:58.868Z,12.20
2023-03-18T00:49:28.420Z,10.80
2023-03-18T00:51:58.640Z,10.40
2023-03-18T00:54:27.640Z,7.30
2023-03-18T00:56:58.987Z,8.80
2023-03-18T00:59:29.375Z,8.40
2023-03-18T01:01:58.197Z,8.60
2023-03-18T01:04:27.870Z,6.20
2023-03-18T01:06:57.310Z,7.50
2023-03-18T01:09:26.527Z,10.00
2023-03-18T01:11:55.345Z,6.80
2023-03-18T01:14:25.843Z,4.20
2023-03-18T01:16:59.077Z,11.10
2023-03-18T01:19:28.640Z,8.10
2023-03-18T01:21:57.594Z,12.20
2023-03-18T01:24:27.057Z,8.90
2023-03-18T01:26:56.748Z,8.30
2023-03-18T01:29:25.503Z,5.70
2023-03-18T01:31:55.261Z,11.00
2023-03-18T01:34:25.180Z,10.80
2023-03-18T01:36:55.132Z,7.90
2023-03-18T01:39:25.128Z,7.10
2023-03-18T01:41:54.489Z,7.90
2023-03-18T01:44:30.915Z,6.80
2023-03-18T01:47:01.593Z,9.30
2023-03-18T01:49:35.986Z,6.30
2023-03-18T01:52:11.272Z,10.40
2023-03-18T01:54:44.820Z,7.30
2023-03-18T01:57:17.016Z,7.30
2023-03-18T01:59:48.873Z,4.40
2023-03-18T02:02:19.069Z,6.00
2023-03-18T02:04:50.180Z,9.40
2023-03-18T02:07:22.245Z,7.70
2023-03-18T02:09:52.363Z,7.80
2023-03-18T02:12:25.165Z,8.10
2023-03-18T02:14:56.586Z,8.30
2023-03-18T02:17:32.730Z,7.20
2023-03-18T02:20:21.702Z,9.60
2023-03-18T02:25:34.214Z,7.10
2023-03-18T02:28:09.570Z,6.90
2023-03-18T02:30:43.332Z,7.50
2023-03-18T02:33:16.385Z,10.90
2023-03-18T02:35:46.817Z,7.10
2023-03-18T02:38:16.180Z,6.60
2023-03-18T02:40:44.797Z,8.30
2023-03-18T02:43:25.321Z,7.70
2023-03-18T02:46:14.320Z,11.90
2023-03-18T02:48:46.453Z,7.50
2023-03-18T02:51:16.585Z,5.20
2023-03-18T02:53:46.818Z,4.90
2023-03-18T02:56:17.099Z,13.00
2023-03-18T02:58:46.159Z,6.30
2023-03-18T03:01:19.119Z,11.00
2023-03-18T03:03:53.186Z,5.10
2023-03-18T03:06:21.783Z,8.50
2023-03-18T03:08:51.684Z,7.90
2023-03-18T03:11:21.368Z,9.20
2023-03-18T03:13:50.539Z,4.20
2023-03-18T03:16:21.324Z,7.60
2023-03-18T03:18:52.284Z,4.60
2023-03-18T03:21:21.036Z,2.90
2023-03-18T03:23:51.680Z,4.70
2023-03-18T03:26:20.442Z,5.60
2023-03-18T03:28:50.391Z,7.50
2023-03-18T03:31:19.026Z,5.30
2023-03-18T03:33:47.819Z,6.50
2023-03-18T03:36:17.660Z,5.60
2023-03-18T03:38:48.627Z,8.20
2023-03-18T03:41:19.061Z,7.10
2023-03-18T03:43:53.092Z,5.80
2023-03-18T03:46:21.994Z,7.70
2023-03-18T03:48:52.237Z,3.50
2023-03-18T03:51:21.676Z,5.30
2023-03-18T03:53:50.942Z,3.90
2023-03-18T03:56:19.624Z,5.80
2023-03-18T03:58:48.233Z,6.70
2023-03-18T04:01:17.891Z,7.60
2023-03-18T04:03:47.874Z,6.70
2023-03-18T04:06:16.522Z,5.10
2023-03-18T04:08:51.836Z,4.50
2023-03-18T04:11:20.624Z,8.00
2023-03-18T04:13:50.196Z,7.10
2023-03-18T04:16:18.878Z,7.80
2023-03-18T04:18:50.694Z,7.10
2023-03-18T04:21:20.672Z,7.80
2023-03-18T04:23:53.096Z,7.20
2023-03-18T04:26:22.526Z,6.30
2023-03-18T04:28:52.408Z,7.70
2023-03-18T04:31:21.365Z,6.20
2023-03-18T04:33:51.162Z,5.20
2023-03-18T04:36:20.486Z,3.70
2023-03-18T04:38:49.228Z,6.40
2023-03-18T04:41:19.005Z,6.30
2023-03-18T04:43:48.345Z,4.50
2023-03-18T04:46:24.030Z,5.90
2023-03-18T04:48:53.283Z,4.30
2023-03-18T04:51:22.313Z,6.70
2023-03-18T04:53:51.334Z,6.40
2023-03-18T04:56:20.517Z,5.70
2023-03-18T04:58:52.097Z,7.30
2023-03-18T05:01:33.350Z,4.90
2023-03-18T05:04:02.427Z,4.40
2023-03-18T05:06:38.466Z,8.50
2023-03-18T05:09:12.669Z,5.20
2023-03-18T05:11:42.784Z,7.20
2023-03-18T05:14:31.526Z,6.40
2023-03-18T05:17:00.851Z,7.60
2023-03-18T05:19:30.144Z,5.20
2023-03-18T05:22:10.097Z,6.90
2023-03-18T05:24:39.502Z,4.60
2023-03-18T05:27:11.627Z,5.10
2023-03-18T05:29:42.935Z,4.60
2023-03-18T05:32:16.426Z,7.00
2023-03-18T05:34:45.276Z,8.10
2023-03-18T05:37:16.042Z,6.30
2023-03-18T05:39:49.599Z,6.80
2023-03-18T05:42:20.272Z,4.70
2023-03-18T05:44:50.040Z,5.10
2023-03-18T05:47:21.343Z,4.70
2023-03-18T05:50:02.470Z,4.00
2023-03-18T05:52:31.556Z,8.90
2023-03-18T05:55:03.450Z,9.30
2023-03-18T05:57:36.381Z,5.30
2023-03-18T06:00:12.882Z,5.40
2023-03-18T06:02:44.483Z,5.40
2023-03-18T06:05:14.051Z,5.20
2023-03-18T06:07:43.174Z,6.20
2023-03-18T06:10:13.290Z,6.70
2023-03-18T06:12:44.003Z,5.90
2023-03-18T06:15:14.453Z,6.40
2023-03-18T06:17:45.884Z,4.30
2023-03-18T06:20:18.207Z,6.70
2023-03-18T06:22:49.149Z,6.80
2023-03-18T06:25:21.336Z,5.20
2023-03-18T06:27:51.646Z,7.00
2023-03-18T06:30:22.171Z,9.20
2023-03-18T06:32:52.742Z,5.80
2023-03-18T06:35:22.770Z,6.00
2023-03-18T06:37:52.643Z,5.70
2023-03-18T06:40:23.293Z,7.50
2023-03-18T06:42:52.312Z,8.10
2023-03-18T06:45:29.513Z,6.40
2023-03-18T06:48:03.087Z,5.10
2023-03-18T06:50:33.168Z,7.10
2023-03-18T06:53:02.388Z,5.50
2023-03-18T06:55:32.485Z,7.70
2023-03-18T06:58:01.827Z,8.20
2023-03-18T07:00:37.314Z,6.70
2023-03-18T07:03:06.306Z,7.30
2023-03-18T07:05:36.826Z,7.70
2023-03-18T07:08:06.334Z,8.70
2023-03-18T07:10:35.498Z,7.00
2023-03-18T07:13:13.024Z,6.30
2023-03-18T07:15:43.053Z,3.40
2023-03-18T07:18:13.773Z,7.80
2023-03-18T07:20:42.736Z,4.00
2023-03-18T07:23:11.824Z,4.80
2023-03-18T07:25:44.077Z,6.00
2023-03-18T07:28:14.053Z,7.20
2023-03-18T07:30:42.775Z,6.50
2023-03-18T07:33:13.074Z,6.80
2023-03-18T07:35:42.469Z,5.60
2023-03-18T07:38:11.894Z,7.60
2023-03-18T07:40:42.365Z,5.70
2023-03-18T07:43:11.518Z,8.40
2023-03-18T07:45:41.111Z,5.10
2023-03-18T07:48:11.293Z,7.10
2023-03-18T07:50:40.368Z,6.90
2023-03-18T07:53:11.133Z,6.50
2023-03-18T07:55:41.219Z,5.90
2023-03-18T07:58:10.917Z,8.50
2023-03-18T08:00:39.540Z,6.00
2023-03-18T08:03:09.281Z,6.50
2023-03-18T08:05:37.826Z,7.40
2023-03-18T08:08:07.332Z,6.20
2023-03-18T08:10:37.118Z,6.70
2023-03-18T08:13:05.762Z,5.80
2023-03-18T08:15:35.069Z,6.20
2023-03-18T08:18:06.024Z,5.90
2023-03-18T08:20:37.734Z,5.60
2023-03-18T08:23:06.661Z,8.30
2023-03-18T08:25:35.864Z,6.80
2023-03-18T08:28:09.447Z,6.70
2023-03-18T08:30:39.500Z,5.00
2023-03-18T08:33:09.391Z,5.00
2023-03-18T08:35:41.464Z,9.20
2023-03-18T08:38:10.425Z,5.80
2023-03-18T08:40:40.963Z,4.50
2023-03-18T08:43:09.909Z,7.50
2023-03-18T08:45:39.314Z,6.20
2023-03-18T08:48:10.435Z,5.90
2023-03-18T08:50:38.986Z,6.70
2023-03-18T08:53:09.140Z,7.10
2023-03-18T08:56:08.278Z,6.20
2023-03-18T08:58:37.359Z,6.40
2023-03-18T09:01:11.898Z,5.20
2023-03-18T09:03:41.631Z,3.40
2023-03-18T09:06:11.754Z,4.80
2023-03-18T09:08:40.769Z,6.40
2023-03-18T09:11:10.466Z,5.30
2023-03-18T09:13:40.591Z,2.80
2023-03-18T09:16:26.706Z,5.20
2023-03-18T09:18:55.965Z,7.50
2023-03-18T09:21:24.859Z,8.90
2023-03-18T09:23:56.734Z,7.00
2023-03-18T09:26:25.615Z,4.20
2023-03-18T09:28:56.799Z,4.50
2023-03-18T09:31:26.666Z,5.10
2023-03-18T09:33:56.061Z,6.60
2023-03-18T09:36:24.918Z,4.80
2023-03-18T09:38:55.204Z,5.60
2023-03-18T09:41:35.133Z,4.40
2023-03-18T09:44:14.110Z,5.80
2023-03-18T09:47:05.259Z,8.20
2023-03-18T09:49:47.667Z,6.80
2023-03-18T09:52:22.607Z,5.30
2023-03-18T09:55:03.307Z,5.90
2023-03-18T09:57:41.770Z,6.10
2023-03-18T10:00:20.752Z,4.70
2023-03-18T10:02:53.818Z,5.80
2023-03-18T10:05:30.655Z,4.10
2023-03-18T10:08:06.772Z,6.10
2023-03-18T10:10:40.902Z,5.40
2023-03-18T10:13:17.890Z,4.10
2023-03-18T10:15:53.445Z,5.30
2023-03-18T10:18:27.742Z,3.90
2023-03-18T10:21:15.778Z,8.50
2023-03-18T10:23:54.887Z,5.50
2023-03-18T10:26:30.074Z,4.10
2023-03-18T10:29:18.893Z,5.70
2023-03-18T10:32:00.882Z,5.50
2023-03-18T10:34:39.358Z,4.60
2023-03-18T10:37:23.392Z,5.30
2023-03-18T10:39:53.607Z,5.10
2023-03-18T10:42:26.269Z,5.70
2023-03-18T10:45:02.528Z,5.20
2023-03-18T10:47:37.977Z,4.20
2023-03-18T10:50:17.536Z,5.10
2023-03-18T10:52:54.016Z,6.80
2023-03-18T10:55:30.510Z,4.40
2023-03-18T10:57:59.250Z,5.80
2023-03-18T11:00:32.584Z,5.30
2023-03-18T11:03:03.750Z,4.40
2023-03-18T11:05:37.012Z,4.60
2023-03-18T11:08:09.411Z,5.90
2023-03-18T11:10:45.621Z,6.30
2023-03-18T11:13:18.388Z,5.20
2023-03-18T11:15:51.205Z,4.00
2023-03-18T11:18:23.588Z,5.80
2023-03-18T11:21:00.367Z,3.10
2023-03-18T11:23:45.760Z,7.10
2023-03-18T11:26:22.451Z,7.50
2023-03-18T11:28:56.535Z,3.60
2023-03-18T11:31:25.428Z,5.60
2023-03-18T11:33:59.040Z,5.50
2023-03-18T11:36:32.004Z,4.60
2023-03-18T11:39:07.566Z,5.00
2023-03-18T11:41:40.390Z,4.90
2023-03-18T11:44:17.993Z,5.10
2023-03-18T11:46:54.451Z,3.20
2023-03-18T11:49:26.540Z,5.00
2023-03-18T11:52:19.443Z,7.30
2023-03-18T11:55:11.219Z,4.00
2023-03-18T11:57:54.649Z,6.70
2023-03-18T12:00:33.520Z,5.10
2023-03-18T12:03:30.285Z,8.90
2023-03-18T12:06:19.272Z,7.20
2023-03-18T12:08:56.775Z,5.50
2023-03-18T12:11:40.618Z,5.60
2023-03-18T12:14:18.379Z,6.40
2023-03-18T12:16:58.668Z,6.60
2023-03-18T12:20:27.020Z,4.20
2023-03-18T12:23:03.934Z,6.80
2023-03-18T12:25:53.502Z,7.40
2023-03-18T12:28:32.293Z,4.80
2023-03-18T12:31:26.239Z,5.90
2023-03-18T12:33:57.861Z,5.20
2023-03-18T12:36:41.716Z,5.90
2023-03-18T12:39:40.600Z,4.30
2023-03-18T12:42:16.940Z,6.50
2023-03-18T12:44:58.559Z,5.00
2023-03-18T12:47:33.394Z,6.60
2023-03-18T12:50:14.771Z,6.20
2023-03-18T12:52:50.153Z,4.80
2023-03-18T12:55:26.375Z,3.80
2023-03-18T12:57:59.759Z,6.40
2023-03-18T13:00:33.847Z,6.10
2023-03-18T13:03:13.351Z,6.80
2023-03-18T13:05:48.185Z,5.30
2023-03-18T13:08:40.658Z,6.40
2023-03-18T13:11:26.281Z,5.50
2023-03-18T13:14:01.084Z,5.60
2023-03-18T13:16:32.712Z,8.50
2023-03-18T13:19:04.729Z,4.60
2023-03-18T13:21:41.002Z,6.30
2023-03-18T13:24:37.325Z,5.30
2023-03-18T13:27:50.348Z,5.40
2023-03-18T13:30:36.717Z,4.40
2023-03-18T13:33:30.706Z,7.90
2023-03-18T13:36:18.722Z,3.70
2023-03-18T13:39:03.577Z,5.60
2023-03-18T13:42:05.105Z,6.50
2023-03-18T13:44:40.545Z,6.10
2023-03-18T13:47:15.459Z,6.30
2023-03-18T13:49:44.566Z,5.90
2023-03-18T13:52:33.098Z,5.30
2023-03-18T13:55:13.074Z,4.90
2023-03-18T13:57:49.443Z,7.20
2023-03-18T14:00:30.555Z,8.10
2023-03-18T14:03:18.798Z,6.70
2023-03-18T14:05:49.798Z,6.30
2023-03-18T14:08:46.661Z,7.40
2023-03-18T14:11:49.756Z,5.30
2023-03-18T14:15:05.333Z,6.60
2023-03-18T14:17:46.213Z,6.10
2023-03-18T14:20:23.277Z,6.00
2023-03-18T14:22:55.294Z,6.30
2023-03-18T14:25:41.593Z,5.70
2023-03-18T14:28:25.198Z,7.10
2023-03-18T14:31:16.085Z,10.80
2023-03-18T14:33:59.283Z,7.80
2023-03-18T14:37:17.826Z,5.70
2023-03-18T14:39:51.103Z,6.40
2023-03-18T14:42:31.586Z,10.10
2023-03-18T14:45:06.681Z,7.40
2023-03-18T14:47:45.520Z,12.60
2023-03-18T14:50:28.946Z,7.80
2023-03-18T14:53:04.437Z,9.00
2023-03-18T14:55:37.413Z,12.60
2023-03-18T14:58:14.294Z,7.30
2023-03-18T15:00:45.585Z,8.90
2023-03-18T15:03:21.340Z,6.90
2023-03-18T15:05:54.422Z,8.10
2023-03-18T15:08:37.436Z,9.30
2023-03-18T15:11:13.602Z,7.10
2023-03-18T15:13:44.107Z,6.00
2023-03-18T15:16:19.503Z,8.70
2023-03-18T15:18:54.424Z,7.10
2023-03-18T15:21:27.605Z,7.60
2023-03-18T15:24:00.689Z,6.20
2023-03-18T15:26:34.125Z,7.90
2023-03-18T15:29:24.062Z,8.70
2023-03-18T15:32:10.332Z,9.00
2023-03-18T15:34:46.732Z,9.80
2023-03-18T15:37:39.959Z,9.30
2023-03-18T15:40:25.686Z,8.30
2023-03-18T15:42:57.878Z,10.50
2023-03-18T15:45:29.912Z,10.60
2023-03-18T15:48:05.202Z,7.50
2023-03-18T15:50:35.566Z,11.60
2023-03-18T15:53:17.496Z,10.20
2023-03-18T15:55:52.232Z,12.10
2023-03-18T15:58:24.643Z,10.80
2023-03-18T16:00:55.286Z,9.70
2023-03-18T16:03:26.192Z,11.60
2023-03-18T16:05:55.474Z,8.70
2023-03-18T16:08:25.327Z,11.10
2023-03-18T16:10:57.298Z,12.50
2023-03-18T16:13:29.231Z,13.10
2023-03-18T16:15:59.102Z,9.50
2023-03-18T16:18:28.347Z,8.80
2023-03-18T16:20:57.401Z,8.10
2023-03-18T16:23:26.752Z,13.00
2023-03-18T16:25:58.278Z,10.10
2023-03-18T16:28:27.889Z,10.40
2023-03-18T16:30:57.174Z,7.40
2023-03-18T16:33:26.263Z,8.30
2023-03-18T16:35:58.061Z,9.80
2023-03-18T16:38:29.274Z,9.50
2023-03-18T16:40:59.221Z,9.60
2023-03-18T16:43:30.583Z,7.50
2023-03-18T16:46:03.257Z,8.20
2023-03-18T16:48:35.318Z,11.30
2023-03-18T16:51:04.845Z,10.40
2023-03-18T16:53:33.853Z,9.90
2023-03-18T16:56:10.233Z,13.10
2023-03-18T16:58:41.190Z,11.30
2023-03-18T17:01:20.471Z,11.30
2023-03-18T17:03:49.448Z,11.80
2023-03-18T17:06:18.538Z,14.50
2023-03-18T17:08:47.107Z,11.90
2023-03-18T17:11:20.656Z,13.00
2023-03-18T17:13:49.557Z,11.90
2023-03-18T17:16:20.204Z,10.50
2023-03-18T17:18:49.292Z,11.10
2023-03-18T17:21:18.957Z,14.80
2023-03-18T17:23:48.341Z,14.60
2023-03-18T17:26:25.156Z,16.70
2023-03-18T17:28:54.108Z,17.70
2023-03-18T17:31:24.639Z,16.00
2023-03-18T17:33:53.857Z,18.00
2023-03-18T17:36:22.848Z,21.10
2023-03-18T17:38:58.028Z,17.60
2023-03-18T17:41:26.934Z,22.60
2023-03-18T17:43:55.956Z,18.80
2023-03-18T17:46:25.269Z,21.90
2023-03-18T17:48:55.459Z,21.30
2023-03-18T17:51:27.723Z,19.60
2023-03-18T17:53:58.973Z,19.10
2023-03-18T17:56:28.602Z,16.80
2023-03-18T17:58:57.641Z,16.00
2023-03-18T18:01:29.650Z,15.90
2023-03-18T18:04:01.213Z,16.60
2023-03-18T18:06:33.274Z,17.90
2023-03-18T18:09:03.894Z,14.60
2023-03-18T18:11:35.161Z,17.20
2023-03-18T18:14:17.565Z,21.10
2023-03-18T18:16:52.204Z,29.10
2023-03-18T18:19:22.502Z,21.70
2023-03-18T18:22:00.348Z,22.20
2023-03-18T18:24:35.985Z,20.60
2023-03-18T18:27:05.861Z,22.90
2023-03-18T18:29:35.734Z,18.70
2023-03-18T18:32:05.180Z,25.50
2023-03-18T18:34:35.221Z,23.90
2023-03-18T18:37:04.429Z,21.80
2023-03-18T18:39:38.411Z,17.20
2023-03-18T18:42:07.640Z,21.10
2023-03-18T18:44:38.367Z,21.80
2023-03-18T18:47:18.300Z,22.50
2023-03-18T18:49:57.830Z,25.50
2023-03-18T18:52:28.558Z,22.70
2023-03-18T18:54:57.736Z,20.40
2023-03-18T18:57:32.929Z,18.70
2023-03-18T19:00:01.937Z,21.40
2023-03-18T19:02:33.259Z,22.40
2023-03-18T19:05:04.206Z,17.50
2023-03-18T19:07:34.505Z,19.20
2023-03-18T19:10:04.292Z,16.70
2023-03-18T19:12:33.688Z,17.10
2023-03-18T19:15:03.274Z,21.10
2023-03-18T19:17:32.536Z,20.60
2023-03-18T19:20:02.771Z,18.10
2023-03-18T19:22:31.986Z,17.10
2023-03-18T19:25:01.291Z,18.30
2023-03-18T19:27:33.116Z,19.80
2023-03-18T19:30:11.717Z,21.30
2023-03-18T19:32:41.417Z,20.00
2023-03-18T19:35:13.920Z,19.30
2023-03-18T19:37:46.260Z,20.20
2023-03-18T19:40:29.880Z,20.60
2023-03-18T19:43:01.658Z,23.90
2023-03-18T19:45:32.351Z,26.90
2023-03-18T19:48:01.368Z,27.00
2023-03-18T19:50:30.446Z,31.60
2023-03-18T19:53:00.320Z,25.60
2023-03-18T19:55:33.338Z,25.60
2023-03-18T19:58:02.255Z,26.00
2023-03-18T20:00:32.089Z,25.20
2023-03-18T20:03:01.255Z,22.90
2023-03-18T20:05:32.489Z,27.80
2023-03-18T20:08:01.721Z,26.90
2023-03-18T20:10:32.108Z,25.70
2023-03-18T20:13:02.687Z,29.90
2023-03-18T20:15:33.066Z,23.30
2023-03-18T20:18:05.825Z,28.30
2023-03-18T20:20:34.964Z,24.60
2023-03-18T20:23:06.368Z,25.80
2023-03-18T20:25:38.698Z,26.30
2023-03-18T20:28:13.304Z,22.10
2023-03-18T20:30:44.152Z,28.20
2023-03-18T20:33:14.904Z,19.30
2023-03-18T20:35:50.375Z,19.00
2023-03-18T20:38:37.062Z,19.80
2023-03-18T20:41:07.560Z,19.70
2023-03-18T20:43:36.508Z,22.20
2023-03-18T20:46:13.195Z,23.00
2023-03-18T20:48:44.796Z,24.70
2023-03-18T20:51:20.958Z,26.60
2023-03-18T20:53:49.951Z,23.30
2023-03-18T20:56:22.350Z,26.70
2023-03-18T20:58:51.873Z,25.10
2023-03-18T21:01:22.245Z,27.70
2023-03-18T21:03:51.812Z,29.00
2023-03-18T21:06:21.248Z,29.80
2023-03-18T21:08:50.163Z,28.10
2023-03-18T21:11:26.651Z,29.50
2023-03-18T21:13:55.736Z,27.00
2023-03-18T21:16:24.569Z,31.30
2023-03-18T21:18:53.220Z,28.60
2023-03-18T21:21:36.305Z,31.20
2023-03-18T21:24:25.119Z,31.70
2023-03-18T21:27:04.616Z,26.00
2023-03-18T21:29:35.220Z,24.80
2023-03-18T21:32:04.432Z,26.20
2023-03-18T21:34:36.572Z,30.40
2023-03-18T21:37:13.938Z,27.70
2023-03-18T21:39:43.204Z,30.60
2023-03-18T21:42:17.968Z,29.20
2023-03-18T21:44:46.635Z,27.90
2023-03-18T21:47:17.549Z,29.30
2023-03-18T21:49:46.442Z,25.20
2023-03-18T21:52:22.030Z,28.30
2023-03-18T21:54:50.614Z,32.40
2023-03-18T21:57:21.808Z,23.90
2023-03-18T21:59:51.132Z,32.90
2023-03-18T22:02:28.131Z,24.80
2023-03-18T22:04:59.082Z,26.30
2023-03-18T22:07:35.672Z,25.10
2023-03-18T22:10:06.588Z,23.10
2023-03-18T22:12:35.390Z,30.70
2023-03-18T22:15:10.284Z,26.20
2023-03-18T22:17:40.590Z,25.80
2023-03-18T22:20:13.421Z,20.30
2023-03-18T22:22:42.223Z,27.90
2023-03-18T22:25:25.249Z,29.30
2023-03-18T22:27:54.169Z,27.80
2023-03-18T22:30:23.356Z,27.10
2023-03-18T22:32:53.095Z,24.90
2023-03-18T22:35:23.528Z,28.90
2023-03-18T22:37:53.853Z,27.80
2023-03-18T22:40:24.972Z,26.40
2023-03-18T22:42:55.521Z,29.50
2023-03-18T22:45:26.318Z,31.50
2023-03-18T22:47:59.029Z,26.80
2023-03-18T22:50:30.543Z,29.70
2023-03-18T22:53:03.030Z,34.30
2023-03-18T22:55:36.002Z,28.00
2023-03-18T22:58:06.346Z,27.70
2023-03-18T23:00:37.516Z,39.00
2023-03-18T23:03:17.832Z,28.80
2023-03-18T23:05:47.562Z,34.00
2023-03-18T23:08:16.618Z,33.70
2023-03-18T23:10:47.077Z,32.50
2023-03-18T23:13:18.358Z,31.40
2023-03-18T23:15:47.445Z,35.80
2023-03-18T23:18:17.334Z,28.80
2023-03-18T23:20:49.202Z,29.90
2023-03-18T23:23:18.219Z,29.60
2023-03-18T23:25:47.107Z,29.20
2023-03-18T23:28:16.346Z,31.40
2023-03-18T23:30:49.031Z,33.10
2023-03-18T23:33:18.373Z,32.10
2023-03-18T23:35:48.206Z,26.10
2023-03-18T23:38:17.157Z,26.80
2023-03-18T23:40:45.860Z,32.10
2023-03-18T23:43:14.810Z,34.50
2023-03-18T23:45:43.669Z,35.50
2023-03-18T23:48:12.927Z,29.10
2023-03-18T23:50:41.760Z,30.00
2023-03-18T23:53:11.337Z,30.40
2023-03-18T23:55:40.353Z,27.80
2023-03-18T23:58:10.966Z,31.30
